Time;durP1;ratioP1;P1;durP2;ratioP2;P2;SDS_P1;SDS_P2;PMS_P1;PMS_P2;Temp;Humidity;BMP_temperature;BMP_pressure;BME280_temperature;BME280_humidity;BME280_pressure;Samples;Min_cycle;Max_cycle;Signal;HPM_P1;HPM_P2
2024/01/04 00:00:12;;;;;;;10.83;6.20;;;2.80;99.90;;;;;;4985422;28;20291;-71
2024/01/04 00:02:39;;;;;;;9.43;6.10;;;2.90;99.90;;;;;;5007897;28;20214;-70
2024/01/04 00:05:09;;;;;;;8.83;5.93;;;2.90;99.90;;;;;;5014510;28;20199;-69
2024/01/04 00:07:36;;;;;;;10.13;6.10;;;2.90;99.90;;;;;;5013522;28;20646;-69
2024/01/04 00:10:06;;;;;;;11.43;6.40;;;2.90;99.90;;;;;;5013147;28;20211;-69
2024/01/04 00:12:33;;;;;;;7.93;5.43;;;2.90;99.90;;;;;;5011216;28;20647;-71
2024/01/04 00:15:03;;;;;;;6.83;5.00;;;2.90;99.90;;;;;;5007264;28;20196;-71
2024/01/04 00:17:30;;;;;;;11.60;6.50;;;3.00;99.90;;;;;;5008993;28;20195;-71
2024/01/04 00:19:56;;;;;;;12.70;7.10;;;3.00;99.90;;;;;;5001852;28;20203;-72
2024/01/04 00:22:23;;;;;;;11.20;6.13;;;3.00;99.90;;;;;;5006754;28;22095;-72
2024/01/04 00:24:51;;;;;;;12.70;6.50;;;3.00;99.90;;;;;;5007683;28;20694;-73
2024/01/04 00:27:19;;;;;;;15.40;7.90;;;3.00;99.90;;;;;;5008121;28;20199;-71
2024/01/04 00:29:48;;;;;;;14.50;7.60;;;3.00;99.90;;;;;;5009913;28;20219;-71
2024/01/04 00:32:15;;;;;;;15.80;7.43;;;2.90;99.90;;;;;;5012683;28;20277;-70
2024/01/04 00:34:43;;;;;;;13.93;7.17;;;2.90;99.90;;;;;;4992573;28;20214;-71
2024/01/04 00:37:11;;;;;;;12.77;6.47;;;3.00;99.90;;;;;;5008165;28;20218;-71
2024/01/04 00:39:38;;;;;;;12.13;6.43;;;3.00;99.90;;;;;;5012202;28;20217;-71
2024/01/04 00:42:05;;;;;;;9.67;5.50;;;2.90;99.90;;;;;;5017170;28;20274;-71
2024/01/04 00:44:34;;;;;;;14.43;7.73;;;2.90;99.90;;;;;;5013596;28;20679;-71
2024/01/04 00:47:01;;;;;;;16.73;8.40;;;2.90;99.90;;;;;;4998475;28;20298;-70
2024/01/04 00:49:29;;;;;;;14.30;7.57;;;2.90;99.90;;;;;;5009970;28;20345;-70
2024/01/04 00:51:56;;;;;;;13.20;7.07;;;2.90;99.90;;;;;;4989512;28;20285;-71
2024/01/04 00:54:23;;;;;;;10.70;6.60;;;2.90;99.90;;;;;;4997088;28;20207;-71
2024/01/04 00:56:51;;;;;;;9.73;5.90;;;2.80;99.90;;;;;;5015728;28;20194;-72
2024/01/04 00:59:18;;;;;;;13.33;7.77;;;2.80;99.90;;;;;;4994304;28;20214;-71
2024/01/04 01:01:46;;;;;;;11.23;6.43;;;2.80;99.90;;;;;;4993557;28;20571;-69
2024/01/04 01:04:13;;;;;;;10.90;6.60;;;2.80;99.90;;;;;;5009655;28;20191;-69
2024/01/04 01:06:40;;;;;;;10.13;6.43;;;2.90;99.90;;;;;;5012395;28;20222;-68
2024/01/04 01:09:07;;;;;;;11.87;7.10;;;2.90;99.90;;;;;;5012801;28;20741;-69
2024/01/04 01:11:34;;;;;;;9.63;6.10;;;2.90;99.90;;;;;;5013458;28;20210;-69
2024/01/04 01:14:01;;;;;;;7.23;5.10;;;2.90;99.90;;;;;;5004159;28;20606;-69
2024/01/04 01:16:28;;;;;;;11.00;6.33;;;2.90;99.90;;;;;;4995976;28;20219;-69
2024/01/04 01:18:57;;;;;;;11.27;6.30;;;3.00;99.90;;;;;;5013665;28;20203;-70
2024/01/04 01:21:25;;;;;;;12.37;7.03;;;3.00;99.90;;;;;;4993091;28;20218;-69
2024/01/04 01:23:52;;;;;;;14.73;7.87;;;3.00;99.90;;;;;;5013567;28;20195;-69
2024/01/04 01:26:19;;;;;;;12.03;7.20;;;2.90;99.90;;;;;;5013168;28;20195;-69
2024/01/04 01:28:46;;;;;;;10.50;6.03;;;2.90;99.90;;;;;;4995517;28;20585;-69
2024/01/04 01:31:13;;;;;;;11.80;6.13;;;2.90;99.90;;;;;;5009290;28;20199;-69
2024/01/04 01:33:43;;;;;;;10.40;5.90;;;2.80;99.90;;;;;;4995844;28;20559;-69
2024/01/04 01:36:11;;;;;;;13.50;6.90;;;2.80;99.90;;;;;;4996244;28;20265;-69
2024/01/04 01:38:39;;;;;;;13.80;8.07;;;2.80;99.90;;;;;;4995841;28;20230;-69
2024/01/04 01:41:06;;;;;;;14.40;8.10;;;2.80;99.90;;;;;;4995159;28;20261;-69
2024/01/04 01:43:33;;;;;;;11.13;6.67;;;2.80;99.90;;;;;;5001547;28;20210;-69
2024/01/04 01:46:03;;;;;;;11.23;6.10;;;2.80;99.90;;;;;;4991908;28;20227;-69
2024/01/04 01:48:30;;;;;;;6.57;4.93;;;2.70;99.90;;;;;;5006021;28;20215;-69
2024/01/04 01:50:58;;;;;;;9.83;5.90;;;2.70;99.90;;;;;;5020194;28;20203;-69
2024/01/04 01:53:27;;;;;;;7.47;5.00;;;2.70;99.90;;;;;;4993369;28;20202;-68
2024/01/04 01:55:54;;;;;;;10.83;6.27;;;2.60;99.90;;;;;;5005927;28;20203;-69
2024/01/04 01:58:22;;;;;;;7.80;5.10;;;2.60;99.90;;;;;;4995301;28;20673;-70
2024/01/04 02:00:49;;;;;;;8.17;5.17;;;2.60;99.90;;;;;;4993308;28;20203;-68
2024/01/04 02:03:17;;;;;;;6.20;4.30;;;2.60;99.90;;;;;;5014092;28;20198;-69
2024/01/04 02:05:45;;;;;;;5.80;4.40;;;2.50;99.90;;;;;;5022289;28;20198;-69
2024/01/04 02:08:12;;;;;;;6.57;4.87;;;2.50;99.90;;;;;;5010354;28;20206;-69
2024/01/04 02:10:40;;;;;;;6.83;4.63;;;2.60;99.90;;;;;;4999710;28;20215;-69
2024/01/04 02:13:09;;;;;;;8.17;5.33;;;2.60;99.90;;;;;;5009468;28;20234;-69
2024/01/04 02:15:36;;;;;;;11.37;5.93;;;2.70;99.90;;;;;;4995203;28;20207;-69
2024/01/04 02:18:03;;;;;;;10.37;5.67;;;2.70;99.90;;;;;;5015068;28;20278;-68
2024/01/04 02:20:30;;;;;;;13.50;6.97;;;2.80;99.90;;;;;;4995999;28;20257;-69
2024/01/04 02:22:58;;;;;;;12.63;7.67;;;2.80;99.90;;;;;;4994816;28;20610;-69
2024/01/04 02:25:26;;;;;;;11.93;6.83;;;2.80;99.90;;;;;;5018050;28;20199;-68
2024/01/04 02:27:53;;;;;;;8.27;5.40;;;2.80;99.90;;;;;;5012423;28;20234;-68
2024/01/04 02:30:20;;;;;;;9.80;6.53;;;2.80;99.90;;;;;;5001597;28;20625;-69
2024/01/04 02:32:48;;;;;;;14.03;7.63;;;2.80;99.90;;;;;;5012275;28;20622;-69
2024/01/04 02:35:16;;;;;;;10.00;6.33;;;2.80;99.90;;;;;;5019053;28;20701;-68
2024/01/04 02:37:43;;;;;;;12.33;6.70;;;2.80;99.90;;;;;;4994597;28;20651;-68
2024/01/04 02:40:12;;;;;;;8.57;5.57;;;2.80;99.90;;;;;;5000593;28;20337;-68
2024/01/04 02:42:39;;;;;;;8.07;5.30;;;2.70;99.90;;;;;;5008508;28;20648;-72
2024/01/04 02:45:07;;;;;;;7.17;4.93;;;2.70;99.90;;;;;;5001201;28;20231;-70
2024/01/04 02:47:34;;;;;;;7.33;4.43;;;2.60;99.90;;;;;;4980795;28;20488;-71
2024/01/04 02:50:01;;;;;;;7.47;4.70;;;2.60;99.90;;;;;;4984953;28;20207;-71
2024/01/04 02:52:28;;;;;;;5.47;4.00;;;2.60;99.90;;;;;;4990674;28;20204;-70
2024/01/04 02:54:55;;;;;;;5.13;4.23;;;2.70;99.90;;;;;;4991122;28;20199;-71
2024/01/04 02:57:24;;;;;;;7.20;5.17;;;2.70;99.90;;;;;;4984873;28;20682;-71
2024/01/04 02:59:51;;;;;;;8.60;5.20;;;2.70;99.90;;;;;;4983006;28;20632;-71
2024/01/04 03:02:18;;;;;;;8.33;5.10;;;2.80;99.90;;;;;;4991771;28;20211;-71
2024/01/04 03:04:45;;;;;;;6.10;4.60;;;2.80;99.90;;;;;;4991884;28;20264;-71
2024/01/04 03:07:12;;;;;;;5.93;4.13;;;2.80;99.90;;;;;;4994960;28;20214;-69
2024/01/04 03:09:40;;;;;;;6.10;4.47;;;2.80;99.90;;;;;;4993827;28;20211;-70
2024/01/04 03:12:07;;;;;;;5.13;4.10;;;2.90;99.90;;;;;;4986059;28;20204;-70
2024/01/04 03:14:35;;;;;;;6.67;4.40;;;2.90;99.90;;;;;;4974174;28;20215;-70
2024/01/04 03:17:04;;;;;;;9.33;5.50;;;2.90;99.90;;;;;;4997333;28;20196;-69
2024/01/04 03:19:31;;;;;;;7.73;4.60;;;3.00;99.90;;;;;;5020281;28;20183;-69
2024/01/04 03:21:58;;;;;;;7.50;5.07;;;3.00;99.90;;;;;;5022713;28;20199;-69
2024/01/04 03:24:25;;;;;;;8.33;5.63;;;3.00;99.90;;;;;;5013794;28;20221;-68
2024/01/04 03:26:52;;;;;;;8.03;5.37;;;3.10;99.90;;;;;;5012935;28;20226;-68
2024/01/04 03:29:19;;;;;;;8.57;5.17;;;3.00;99.90;;;;;;5009645;28;20191;-71
2024/01/04 03:31:48;;;;;;;5.47;4.10;;;3.00;99.90;;;;;;5002404;28;20663;-69
2024/01/04 03:34:15;;;;;;;5.67;4.00;;;2.90;99.90;;;;;;4981843;28;20656;-68
2024/01/04 03:36:42;;;;;;;6.97;4.23;;;3.10;99.90;;;;;;4981433;28;20231;-69
2024/01/04 03:39:12;;;;;;;6.70;4.30;;;2.90;99.90;;;;;;4983402;28;20255;-69
2024/01/04 03:41:39;;;;;;;5.57;4.03;;;2.90;99.90;;;;;;4988647;28;20200;-69
2024/01/04 03:44:06;;;;;;;5.43;3.83;;;3.00;99.90;;;;;;4985178;28;20201;-70
2024/01/04 03:46:33;;;;;;;5.03;3.43;;;2.90;99.90;;;;;;5010044;28;20587;-69
2024/01/04 03:49:02;;;;;;;5.60;3.73;;;2.90;99.90;;;;;;5002897;28;20207;-68
2024/01/04 03:51:29;;;;;;;4.77;3.67;;;2.80;99.90;;;;;;5006847;28;20207;-69
2024/01/04 03:53:58;;;;;;;4.37;2.97;;;2.80;99.90;;;;;;5003668;28;20601;-69
2024/01/04 03:56:25;;;;;;;3.67;3.30;;;2.80;99.90;;;;;;5010635;28;20276;-69
2024/01/04 03:58:52;;;;;;;5.93;3.27;;;2.80;99.90;;;;;;5008195;28;20198;-69
2024/01/04 04:01:20;;;;;;;5.47;3.73;;;2.80;99.90;;;;;;5010889;28;20195;-71
2024/01/04 04:03:49;;;;;;;4.03;3.47;;;2.90;99.90;;;;;;5011195;28;20203;-70
2024/01/04 04:06:20;;;;;;;4.67;3.80;;;2.80;99.90;;;;;;5004686;28;20187;-70
2024/01/04 04:08:47;;;;;;;7.90;5.23;;;2.90;99.90;;;;;;5011594;28;20266;-70
2024/01/04 04:11:17;;;;;;;8.50;5.20;;;2.90;99.90;;;;;;5005046;28;20228;-70
2024/01/04 04:13:45;;;;;;;7.53;4.73;;;2.90;99.90;;;;;;5004502;28;20297;-71
2024/01/04 04:16:12;;;;;;;5.70;4.03;;;2.90;99.90;;;;;;5011036;28;20199;-70
2024/01/04 04:18:39;;;;;;;5.60;4.37;;;2.80;99.90;;;;;;5010796;28;20234;-70
2024/01/04 04:21:06;;;;;;;5.20;3.90;;;2.80;99.90;;;;;;4989638;28;20563;-70
2024/01/04 04:23:35;;;;;;;5.53;3.47;;;2.80;99.90;;;;;;5008766;28;20199;-71
2024/01/04 04:26:05;;;;;;;5.17;3.97;;;2.80;99.90;;;;;;4991949;28;20214;-70
2024/01/04 04:28:32;;;;;;;9.80;5.20;;;2.80;99.90;;;;;;4997631;28;20561;-70
2024/01/04 04:30:59;;;;;;;9.87;4.63;;;2.80;99.90;;;;;;4993064;28;20223;-70
2024/01/04 04:33:27;;;;;;;11.27;6.13;;;2.90;99.90;;;;;;4990817;28;20287;-71
2024/01/04 04:35:54;;;;;;;8.90;5.10;;;2.90;99.90;;;;;;5001457;28;20186;-71
2024/01/04 04:38:21;;;;;;;6.90;4.30;;;2.90;99.90;;;;;;5004273;28;20195;-71
2024/01/04 04:40:50;;;;;;;7.37;4.43;;;3.00;99.90;;;;;;5004566;28;20183;-71
2024/01/04 04:43:17;;;;;;;11.70;6.10;;;2.90;99.90;;;;;;5009770;28;20221;-71
2024/01/04 04:45:44;;;;;;;14.97;7.93;;;2.90;99.90;;;;;;5001932;28;20312;-71
2024/01/04 04:48:11;;;;;;;10.87;6.57;;;2.90;99.90;;;;;;5012587;28;20206;-71
2024/01/04 04:50:38;;;;;;;9.27;5.00;;;2.90;99.90;;;;;;4997100;28;20215;-71
2024/01/04 04:53:05;;;;;;;9.90;4.13;;;2.90;99.90;;;;;;5008118;28;20199;-70
2024/01/04 04:55:33;;;;;;;7.90;4.80;;;2.90;99.90;;;;;;5014989;28;20203;-71
2024/01/04 04:58:02;;;;;;;6.30;4.10;;;2.90;99.90;;;;;;5014833;28;20207;-72
2024/01/04 05:00:29;;;;;;;5.13;3.80;;;2.90;99.90;;;;;;5015431;28;20534;-73
2024/01/04 05:02:56;;;;;;;3.73;3.13;;;2.90;99.90;;;;;;5013618;28;20717;-71
2024/01/04 05:05:23;;;;;;;4.43;3.40;;;2.90;99.90;;;;;;4996919;28;20210;-72
2024/01/04 05:07:50;;;;;;;5.53;3.77;;;2.80;99.90;;;;;;5002246;28;20234;-73
2024/01/04 05:10:20;;;;;;;5.27;3.90;;;2.70;99.90;;;;;;5003130;28;20663;-74
2024/01/04 05:12:47;;;;;;;4.30;3.47;;;2.80;99.90;;;;;;5011043;28;20195;-70
2024/01/04 05:15:16;;;;;;;5.73;3.47;;;2.80;99.90;;;;;;5011687;28;20254;-73
2024/01/04 05:17:43;;;;;;;6.60;4.40;;;2.80;99.90;;;;;;5003040;28;20257;-71
2024/01/04 05:20:12;;;;;;;6.97;4.47;;;2.70;99.90;;;;;;5012068;28;20222;-70
2024/01/04 05:22:40;;;;;;;7.50;4.60;;;3.20;99.90;;;;;;5003774;28;20701;-72
2024/01/04 05:25:07;;;;;;;8.37;4.80;;;2.80;99.90;;;;;;5013665;28;20287;-71
2024/01/04 05:27:34;;;;;;;5.40;4.03;;;2.80;99.90;;;;;;5018147;28;20195;-69
2024/01/04 05:30:02;;;;;;;5.27;3.60;;;2.90;99.90;;;;;;5002124;28;20216;-70
2024/01/04 05:32:30;;;;;;;6.00;4.13;;;2.80;99.90;;;;;;5024310;28;20202;-69
2024/01/04 05:34:57;;;;;;;6.77;4.57;;;2.80;99.90;;;;;;4995796;28;20567;-71
2024/01/04 05:37:24;;;;;;;8.50;5.60;;;2.80;99.90;;;;;;5013468;28;20194;-69
2024/01/04 05:39:51;;;;;;;9.20;5.67;;;2.80;99.90;;;;;;4999000;28;20233;-69
2024/01/04 05:42:19;;;;;;;9.27;5.27;;;2.80;99.90;;;;;;5013668;28;20253;-69
2024/01/04 05:44:46;;;;;;;7.53;4.90;;;2.80;99.90;;;;;;5001927;28;20238;-69
2024/01/04 05:47:13;;;;;;;7.40;4.47;;;2.70;99.90;;;;;;5020260;28;20206;-69
2024/01/04 05:49:41;;;;;;;8.73;5.10;;;2.70;99.90;;;;;;5013789;28;20199;-69
2024/01/04 05:52:08;;;;;;;7.97;5.20;;;2.70;99.90;;;;;;5008410;28;20208;-68
2024/01/04 05:54:35;;;;;;;9.60;5.33;;;2.70;99.90;;;;;;5015678;28;20282;-69
2024/01/04 05:57:02;;;;;;;9.70;5.93;;;2.70;99.90;;;;;;5008175;28;20199;-70
2024/01/04 05:59:30;;;;;;;7.27;5.03;;;2.70;99.90;;;;;;4990135;28;20600;-70
2024/01/04 06:01:57;;;;;;;6.37;4.60;;;2.70;99.90;;;;;;5007738;28;20211;-70
2024/01/04 06:04:24;;;;;;;7.60;4.63;;;2.70;99.90;;;;;;5013197;28;20249;-70
2024/01/04 06:06:53;;;;;;;6.33;4.60;;;2.70;99.90;;;;;;4998516;28;20200;-70
2024/01/04 06:09:22;;;;;;;6.37;4.17;;;2.70;99.90;;;;;;5008338;28;20217;-70
2024/01/04 06:11:50;;;;;;;4.37;3.30;;;2.80;99.90;;;;;;4992750;28;20219;-70
2024/01/04 06:14:19;;;;;;;4.63;3.30;;;2.70;99.90;;;;;;5007985;28;20309;-70
2024/01/04 06:16:46;;;;;;;6.13;3.80;;;2.80;99.90;;;;;;4996097;28;20199;-70
2024/01/04 06:19:13;;;;;;;4.17;3.30;;;2.90;99.90;;;;;;4995556;28;20222;-70
2024/01/04 06:21:40;;;;;;;3.77;3.30;;;2.90;99.90;;;;;;4984792;28;20651;-70
2024/01/04 06:24:09;;;;;;;3.53;3.20;;;2.90;99.90;;;;;;4996091;28;20207;-70
2024/01/04 06:26:36;;;;;;;5.03;3.77;;;2.80;99.90;;;;;;5011993;28;20195;-70
2024/01/04 06:29:03;;;;;;;4.53;3.80;;;3.00;99.90;;;;;;4988304;28;20214;-71
2024/01/04 06:31:32;;;;;;;3.63;3.23;;;3.00;99.90;;;;;;5018485;28;20319;-71
2024/01/04 06:33:59;;;;;;;3.60;3.00;;;3.00;99.90;;;;;;5009524;28;20361;-72
2024/01/04 06:36:26;;;;;;;4.63;3.27;;;3.00;99.90;;;;;;4991612;28;20203;-71
2024/01/04 06:38:53;;;;;;;4.70;3.37;;;3.00;99.90;;;;;;4987768;28;20204;-72
2024/01/04 06:41:23;;;;;;;3.37;3.07;;;3.00;99.90;;;;;;5011331;28;20203;-72
2024/01/04 06:43:51;;;;;;;4.60;3.30;;;3.00;99.90;;;;;;4990468;28;20207;-71
2024/01/04 06:46:21;;;;;;;5.50;3.13;;;3.10;99.90;;;;;;4995290;28;20590;-71
2024/01/04 06:48:48;;;;;;;5.40;3.63;;;3.10;99.90;;;;;;5002366;28;20199;-71
2024/01/04 06:51:15;;;;;;;6.77;4.63;;;3.20;99.90;;;;;;5007550;28;20674;-69
2024/01/04 06:53:42;;;;;;;6.30;3.80;;;3.20;99.90;;;;;;5002239;28;20202;-71
2024/01/04 06:56:31;;;;;;;7.97;4.53;;;3.30;99.90;;;;;;5010805;28;20249;-72
2024/01/04 06:58:59;;;;;;;8.07;4.70;;;3.30;99.90;;;;;;4997056;28;20198;-72
2024/01/04 07:01:26;;;;;;;4.63;3.80;;;3.30;99.90;;;;;;5010565;28;20229;-70
2024/01/04 07:03:53;;;;;;;6.47;4.13;;;3.20;99.90;;;;;;5010935;28;20234;-70
2024/01/04 07:06:20;;;;;;;4.90;3.90;;;3.20;99.90;;;;;;5006731;28;20803;-72
2024/01/04 07:08:48;;;;;;;3.63;3.20;;;3.20;99.90;;;;;;4996336;28;20206;-71
2024/01/04 07:11:15;;;;;;;4.00;2.93;;;3.20;99.90;;;;;;5010482;28;20258;-71
2024/01/04 07:13:44;;;;;;;4.47;3.13;;;3.20;99.90;;;;;;4995966;28;20566;-71
2024/01/04 07:16:13;;;;;;;5.77;3.50;;;3.20;99.90;;;;;;5014163;28;20191;-71
2024/01/04 07:18:42;;;;;;;3.10;2.77;;;3.20;99.90;;;;;;5013996;28;20195;-71
2024/01/04 07:21:09;;;;;;;5.37;3.67;;;3.20;99.90;;;;;;5001782;28;20777;-71
2024/01/04 07:23:36;;;;;;;4.97;3.60;;;3.10;99.90;;;;;;5002585;28;20214;-71
2024/01/04 07:26:03;;;;;;;4.60;3.47;;;3.20;99.90;;;;;;5011922;28;20257;-71
2024/01/04 07:28:30;;;;;;;4.80;3.37;;;3.20;99.90;;;;;;5011161;28;20199;-72
2024/01/04 07:30:58;;;;;;;4.90;3.30;;;3.10;99.90;;;;;;5010728;28;20584;-72
2024/01/04 07:33:27;;;;;;;4.57;3.53;;;3.10;99.90;;;;;;5010491;28;20207;-72
2024/01/04 07:35:54;;;;;;;8.53;4.70;;;3.10;99.90;;;;;;4998019;28;20767;-72
2024/01/04 07:38:21;;;;;;;7.97;4.63;;;3.20;99.90;;;;;;5009766;28;20207;-72
2024/01/04 07:40:48;;;;;;;6.17;3.67;;;3.20;99.90;;;;;;4985229;28;20558;-72
2024/01/04 07:43:15;;;;;;;6.37;3.93;;;3.20;99.90;;;;;;5002277;28;20200;-71
2024/01/04 07:45:45;;;;;;;5.47;4.03;;;3.30;99.90;;;;;;5004724;28;20235;-73
2024/01/04 07:48:12;;;;;;;4.43;3.10;;;3.20;99.90;;;;;;4985222;28;20698;-72
2024/01/04 07:50:41;;;;;;;6.90;3.70;;;3.20;99.90;;;;;;5008457;28;20293;-71
2024/01/04 07:53:08;;;;;;;6.83;3.67;;;3.20;99.90;;;;;;4991628;28;20202;-72
2024/01/04 07:55:35;;;;;;;5.67;4.07;;;3.20;99.90;;;;;;5008217;28;20207;-72
2024/01/04 07:58:03;;;;;;;4.10;3.50;;;3.20;99.90;;;;;;4986390;28;20253;-71
2024/01/04 08:00:30;;;;;;;6.13;3.73;;;3.20;99.90;;;;;;5007184;28;20195;-72
2024/01/04 08:02:57;;;;;;;3.13;2.83;;;3.20;99.90;;;;;;4987323;28;20210;-73
2024/01/04 08:05:24;;;;;;;4.30;3.03;;;3.20;99.90;;;;;;4987170;28;20253;-72
2024/01/04 08:07:53;;;;;;;5.90;3.73;;;3.10;99.90;;;;;;5006416;28;20227;-72
2024/01/04 08:10:20;;;;;;;5.80;3.17;;;3.10;99.90;;;;;;4994545;28;20206;-72
2024/01/04 08:12:49;;;;;;;4.10;3.00;;;3.10;99.90;;;;;;5009395;28;20202;-72
2024/01/04 08:15:16;;;;;;;4.87;3.50;;;3.10;99.90;;;;;;4996521;28;20213;-73
2024/01/04 08:17:43;;;;;;;3.77;3.10;;;3.10;99.90;;;;;;5008567;28;20202;-72
2024/01/04 08:20:13;;;;;;;3.83;2.90;;;3.10;99.90;;;;;;4982714;28;20567;-72
2024/01/04 08:22:41;;;;;;;4.50;3.10;;;3.00;99.90;;;;;;5002526;28;20253;-71
2024/01/04 08:25:10;;;;;;;5.77;3.27;;;3.00;99.90;;;;;;5008129;28;20203;-71
2024/01/04 08:27:37;;;;;;;3.23;2.50;;;3.00;99.90;;;;;;4981306;28;20655;-72
2024/01/04 08:30:05;;;;;;;4.57;2.97;;;3.00;99.90;;;;;;5005994;28;20346;-71
2024/01/04 08:32:32;;;;;;;4.63;3.10;;;3.00;99.90;;;;;;5010744;28;20224;-72
2024/01/04 08:34:59;;;;;;;4.30;3.43;;;3.00;99.90;;;;;;4986731;28;20702;-72
2024/01/04 08:37:26;;;;;;;3.90;2.93;;;3.00;99.90;;;;;;4977373;28;20203;-73
2024/01/04 08:39:54;;;;;;;3.97;2.90;;;3.00;99.90;;;;;;5003289;28;20237;-72
2024/01/04 08:42:23;;;;;;;5.97;2.80;;;3.00;99.90;;;;;;5002711;28;20544;-74
2024/01/04 08:44:50;;;;;;;6.37;3.10;;;3.00;99.90;;;;;;4983800;28;20747;-73
2024/01/04 08:47:17;;;;;;;7.17;2.80;;;3.00;99.90;;;;;;5010297;28;20219;-73
2024/01/04 08:49:47;;;;;;;3.07;2.73;;;3.00;99.90;;;;;;4996863;28;20665;-73
2024/01/04 08:52:14;;;;;;;4.57;3.17;;;3.00;99.90;;;;;;5002477;28;20698;-72
2024/01/04 08:54:43;;;;;;;4.80;2.93;;;3.00;99.90;;;;;;5006136;28;20237;-72
2024/01/04 08:57:10;;;;;;;4.13;3.10;;;3.00;99.90;;;;;;4988532;28;20301;-72
2024/01/04 08:59:38;;;;;;;2.60;2.40;;;3.00;99.90;;;;;;4999906;28;20196;-73
2024/01/04 09:02:07;;;;;;;2.77;2.50;;;3.00;99.90;;;;;;5007916;28;20612;-72
2024/01/04 09:04:34;;;;;;;3.57;2.57;;;3.00;99.90;;;;;;4989445;28;20223;-72
2024/01/04 09:07:02;;;;;;;3.60;2.80;;;3.00;99.90;;;;;;5009744;28;20694;-72
2024/01/04 09:09:29;;;;;;;3.40;3.10;;;3.00;99.90;;;;;;5003592;28;20627;-72
2024/01/04 09:11:56;;;;;;;2.67;2.47;;;3.00;99.90;;;;;;5019452;28;20745;-72
2024/01/04 09:14:25;;;;;;;2.53;2.33;;;3.00;99.90;;;;;;5009957;28;20673;-73
2024/01/04 09:16:54;;;;;;;2.90;2.70;;;3.00;99.90;;;;;;5002422;28;20214;-72
2024/01/04 09:19:21;;;;;;;3.53;2.73;;;3.00;99.90;;;;;;5005117;28;20262;-73
2024/01/04 09:21:50;;;;;;;2.90;2.53;;;3.00;99.90;;;;;;5002180;28;20199;-72
2024/01/04 09:24:18;;;;;;;3.53;2.57;;;3.00;99.90;;;;;;4990323;28;20207;-73
2024/01/04 09:26:46;;;;;;;3.60;3.03;;;3.00;99.90;;;;;;5014210;28;20203;-73
2024/01/04 09:29:15;;;;;;;5.63;4.00;;;2.90;99.90;;;;;;5007845;28;20226;-72
2024/01/04 09:31:46;;;;;;;8.60;4.87;;;2.90;99.90;;;;;;5004947;28;20250;-72
2024/01/04 09:34:15;;;;;;;6.13;4.33;;;2.90;99.90;;;;;;4988795;28;20719;-72
2024/01/04 09:36:42;;;;;;;4.50;4.00;;;2.90;99.90;;;;;;5011480;28;20610;-73
2024/01/04 09:39:14;;;;;;;7.73;4.70;;;2.90;99.90;;;;;;5006142;28;20203;-72
2024/01/04 09:41:44;;;;;;;8.83;5.57;;;2.90;99.90;;;;;;4986464;28;20200;-72
2024/01/04 09:44:13;;;;;;;11.60;6.30;;;2.80;99.90;;;;;;5008944;28;20199;-72
2024/01/04 09:46:41;;;;;;;15.27;6.83;;;2.80;99.90;;;;;;5010738;28;20212;-73
2024/01/04 09:49:11;;;;;;;9.80;5.77;;;2.80;99.90;;;;;;5005268;28;20210;-72
2024/01/04 09:51:40;;;;;;;7.97;5.10;;;2.80;99.90;;;;;;4987695;28;20204;-72
2024/01/04 09:54:09;;;;;;;6.63;4.27;;;2.80;99.90;;;;;;5010519;28;20301;-72
2024/01/04 09:56:39;;;;;;;5.90;4.13;;;2.80;99.90;;;;;;5009805;28;20226;-72
2024/01/04 09:59:08;;;;;;;5.87;4.00;;;2.80;99.90;;;;;;5011015;28;20198;-73
2024/01/04 10:01:38;;;;;;;6.93;4.47;;;2.80;99.90;;;;;;5006541;28;20281;-72
2024/01/04 10:04:07;;;;;;;6.30;4.30;;;2.80;99.90;;;;;;5005818;28;20208;-73
2024/01/04 10:06:37;;;;;;;5.17;3.83;;;2.90;99.90;;;;;;5008656;28;20218;-72
2024/01/04 10:09:20;;;;;;;3.93;3.53;;;2.90;99.90;;;;;;4989824;28;20199;-71
2024/01/04 10:11:57;;;;;;;4.20;3.67;;;2.80;99.90;;;;;;4983406;28;20229;-72
2024/01/04 10:14:25;;;;;;;6.20;4.33;;;2.80;99.90;;;;;;5000763;28;20207;-72
2024/01/04 10:16:53;;;;;;;6.73;4.87;;;2.80;99.90;;;;;;5010263;28;20349;-72
2024/01/04 10:19:23;;;;;;;6.90;4.90;;;2.80;99.90;;;;;;5011346;28;20195;-73
2024/01/04 10:21:51;;;;;;;7.77;5.07;;;2.90;99.90;;;;;;5003953;28;20194;-72
2024/01/04 10:24:23;;;;;;;9.47;5.33;;;2.90;99.90;;;;;;4990967;28;20241;-71
2024/01/04 10:26:57;;;;;;;7.20;4.87;;;2.90;99.90;;;;;;4995992;28;20301;-72
2024/01/04 10:29:25;;;;;;;5.50;3.80;;;3.00;99.90;;;;;;5003250;28;20575;-72
2024/01/04 10:31:59;;;;;;;7.43;4.80;;;2.90;99.90;;;;;;4999820;28;20298;-71
2024/01/04 10:34:29;;;;;;;8.13;4.77;;;2.90;99.90;;;;;;4991200;28;20218;-71
2024/01/04 10:37:09;;;;;;;6.40;3.83;;;2.80;99.90;;;;;;5006398;28;20286;-71
2024/01/04 10:39:38;;;;;;;6.40;4.33;;;2.80;99.90;;;;;;4998872;28;20192;-71
2024/01/04 10:42:08;;;;;;;5.97;3.77;;;2.80;99.90;;;;;;4996002;28;20627;-71
2024/01/04 10:44:35;;;;;;;4.27;3.87;;;2.80;99.90;;;;;;4993095;28;20227;-71
2024/01/04 10:47:04;;;;;;;4.37;3.30;;;2.80;99.90;;;;;;5002929;28;20255;-71
2024/01/04 10:49:31;;;;;;;5.83;4.13;;;2.80;99.90;;;;;;5018228;28;20191;-71
2024/01/04 10:52:00;;;;;;;4.87;3.40;;;2.80;99.90;;;;;;5008548;28;20251;-71
2024/01/04 10:54:32;;;;;;;6.70;4.50;;;2.80;99.90;;;;;;5011488;28;20198;-71
2024/01/04 10:57:02;;;;;;;4.43;3.50;;;2.80;99.90;;;;;;5008817;28;20249;-70
2024/01/04 10:59:30;;;;;;;5.50;4.07;;;2.80;99.90;;;;;;4997530;28;20317;-72
2024/01/04 11:01:59;;;;;;;4.33;3.77;;;2.70;99.90;;;;;;4977671;28;20187;-71
2024/01/04 11:04:26;;;;;;;5.33;3.60;;;2.70;99.90;;;;;;5014492;28;20198;-72
2024/01/04 11:06:54;;;;;;;5.97;4.00;;;2.70;99.90;;;;;;5003909;28;20230;-72
2024/01/04 11:09:22;;;;;;;4.00;3.50;;;2.70;99.90;;;;;;4999429;28;20282;-71
2024/01/04 11:11:51;;;;;;;4.93;3.80;;;2.70;99.90;;;;;;4982121;28;20773;-71
2024/01/04 11:14:20;;;;;;;4.50;3.27;;;2.60;99.90;;;;;;5011245;28;20282;-71
2024/01/04 11:17:04;;;;;;;3.63;3.17;;;2.60;99.90;;;;;;5008158;28;20278;-71
2024/01/04 11:19:44;;;;;;;3.43;3.13;;;2.60;99.90;;;;;;4985662;28;20739;-71
2024/01/04 11:22:27;;;;;;;4.40;3.30;;;2.60;99.90;;;;;;5007828;28;20230;-71
2024/01/04 11:25:03;;;;;;;6.17;3.40;;;2.70;99.90;;;;;;4997194;28;20206;-71
2024/01/04 11:27:32;;;;;;;4.70;3.40;;;2.00;99.90;;;;;;4991987;28;20198;-71
2024/01/04 11:30:01;;;;;;;4.77;3.43;;;2.70;99.90;;;;;;4988568;28;20203;-71
2024/01/04 11:32:31;;;;;;;4.10;3.37;;;2.60;99.90;;;;;;5014124;28;20341;-71
2024/01/04 11:34:57;;;;;;;5.30;3.77;;;2.60;99.90;;;;;;4981963;28;20556;-70
2024/01/04 11:37:26;;;;;;;4.50;3.27;;;2.70;99.90;;;;;;4988122;28;20210;-71
2024/01/04 11:39:56;;;;;;;6.70;3.53;;;2.60;99.90;;;;;;5012439;28;20210;-71
2024/01/04 11:42:35;;;;;;;4.50;3.00;;;2.60;99.90;;;;;;5009790;28;20198;-71
2024/01/04 11:45:05;;;;;;;5.43;3.93;;;2.50;99.90;;;;;;5000176;28;20235;-71
2024/01/04 11:47:37;;;;;;;4.80;3.60;;;2.50;99.90;;;;;;5008805;28;20655;-72
2024/01/04 11:50:14;;;;;;;4.20;3.30;;;2.50;99.90;;;;;;5009699;28;20245;-71
2024/01/04 11:52:42;;;;;;;4.27;3.50;;;2.50;99.90;;;;;;5006569;28;20621;-71
2024/01/04 11:55:09;;;;;;;6.80;3.20;;;2.50;99.90;;;;;;4996377;28;20199;-71
2024/01/04 11:57:36;;;;;;;3.47;3.00;;;2.50;99.90;;;;;;4993747;28;20268;-72
2024/01/04 12:00:17;;;;;;;3.83;2.60;;;2.50;99.90;;;;;;5010708;28;20191;-71
2024/01/04 12:02:44;;;;;;;2.70;2.50;;;2.50;99.90;;;;;;5003098;28;20904;-72
2024/01/04 12:05:18;;;;;;;3.43;2.57;;;2.50;99.90;;;;;;4988745;28;20203;-71
2024/01/04 12:07:45;;;;;;;4.90;2.90;;;2.50;99.90;;;;;;5007150;28;20199;-71
2024/01/04 12:10:13;;;;;;;3.97;3.23;;;2.60;99.90;;;;;;5005864;28;20195;-69
2024/01/04 12:12:41;;;;;;;3.73;3.40;;;2.50;99.90;;;;;;5001016;28;20293;-70
2024/01/04 12:15:10;;;;;;;4.00;3.10;;;2.50;99.90;;;;;;5008768;28;20198;-71
2024/01/04 12:17:38;;;;;;;5.50;3.37;;;2.50;99.90;;;;;;4989177;28;20206;-72
2024/01/04 12:20:10;;;;;;;4.30;3.10;;;2.50;99.90;;;;;;5012453;28;20656;-71
2024/01/04 12:22:39;;;;;;;5.10;2.97;;;2.50;99.90;;;;;;4991839;28;20202;-71
2024/01/04 12:25:08;;;;;;;2.73;2.50;;;2.50;99.90;;;;;;4990346;28;20312;-71
2024/01/04 12:27:37;;;;;;;2.97;2.33;;;2.50;99.90;;;;;;5016524;28;20199;-71
2024/01/04 12:30:05;;;;;;;3.27;2.50;;;2.40;99.90;;;;;;5015761;28;20512;-71
2024/01/04 12:32:33;;;;;;;3.93;2.90;;;2.50;99.90;;;;;;4987845;28;20239;-71
2024/01/04 12:35:02;;;;;;;5.93;2.90;;;2.40;99.90;;;;;;4990459;28;20293;-71
2024/01/04 12:37:32;;;;;;;5.40;3.00;;;2.40;99.90;;;;;;5006744;28;20199;-71
2024/01/04 12:40:06;;;;;;;2.50;2.30;;;2.40;99.90;;;;;;4992214;28;20206;-71
2024/01/04 12:42:34;;;;;;;8.70;4.00;;;2.40;99.90;;;;;;4988666;28;20192;-71
2024/01/04 12:45:02;;;;;;;8.07;4.50;;;2.40;99.90;;;;;;5010552;28;20231;-71
2024/01/04 12:47:32;;;;;;;10.20;4.10;;;2.40;99.90;;;;;;5002983;28;20218;-70
2024/01/04 12:50:09;;;;;;;7.80;4.30;;;2.40;99.90;;;;;;4986834;28;20612;-71
2024/01/04 12:52:40;;;;;;;5.53;3.67;;;2.40;99.90;;;;;;5007468;28;20241;-71
2024/01/04 12:55:11;;;;;;;5.77;3.90;;;2.30;99.90;;;;;;5003332;28;20277;-70
2024/01/04 12:57:38;;;;;;;5.87;3.80;;;2.30;99.90;;;;;;4985094;28;20214;-70
2024/01/04 13:00:07;;;;;;;6.70;3.93;;;2.30;99.90;;;;;;5004364;28;20203;-70